sensor_id;sensor_type;location;lat;lon;timestamp;temperature;humidity
20750;DHT22;10535;50.664;4.564;2023-08-31T00:02:15;12.60;99.90
20750;DHT22;10535;50.664;4.564;2023-08-31T00:04:41;12.50;99.90
20750;DHT22;10535;50.664;4.564;2023-08-31T00:07:06;12.50;99.90
20750;DHT22;10535;50.664;4.564;2023-08-31T00:09:32;12.50;99.90
20750;DHT22;10535;50.664;4.564;2023-08-31T00:12:01;12.50;99.90
20750;DHT22;10535;50.664;4.564;2023-08-31T00:14:27;12.60;99.90
20750;DHT22;10535;50.664;4.564;2023-08-31T00:16:53;12.60;99.90
20750;DHT22;10535;50.664;4.564;2023-08-31T00:19:19;12.60;99.90
20750;DHT22;10535;50.664;4.564;2023-08-31T00:21:45;12.60;99.90
20750;DHT22;10535;50.664;4.564;2023-08-31T00:24:10;12.50;99.90
20750;DHT22;10535;50.664;4.564;2023-08-31T00:26:37;12.50;99.90
20750;DHT22;10535;50.664;4.564;2023-08-31T00:29:09;12.40;99.90
20750;DHT22;10535;50.664;4.564;2023-08-31T00:31:37;12.40;99.90
20750;DHT22;10535;50.664;4.564;2023-08-31T00:34:03;12.40;99.90
20750;DHT22;10535;50.664;4.564;2023-08-31T00:36:32;12.60;99.90
20750;DHT22;10535;50.664;4.564;2023-08-31T00:39:02;12.70;99.90
20750;DHT22;10535;50.664;4.564;2023-08-31T00:41:31;12.70;99.90
20750;DHT22;10535;50.664;4.564;2023-08-31T00:43:56;12.70;99.90
20750;DHT22;10535;50.664;4.564;2023-08-31T00:46:22;12.80;99.90
20750;DHT22;10535;50.664;4.564;2023-08-31T00:48:47;12.90;99.90
20750;DHT22;10535;50.664;4.564;2023-08-31T00:51:13;13.00;99.90
20750;DHT22;10535;50.664;4.564;2023-08-31T00:53:40;13.00;99.90
20750;DHT22;10535;50.664;4.564;2023-08-31T00:56:07;12.90;99.90
20750;DHT22;10535;50.664;4.564;2023-08-31T00:58:33;12.90;99.90
20750;DHT22;10535;50.664;4.564;2023-08-31T01:01:32;13.00;99.90
20750;DHT22;10535;50.664;4.564;2023-08-31T01:04:25;13.00;99.90
20750;DHT22;10535;50.664;4.564;2023-08-31T01:10:11;13.00;99.90
20750;DHT22;10535;50.664;4.564;2023-08-31T01:15:24;13.10;99.90
20750;DHT22;10535;50.664;4.564;2023-08-31T01:17:54;13.10;99.90
20750;DHT22;10535;50.664;4.564;2023-08-31T01:23:19;13.20;99.90
20750;DHT22;10535;50.664;4.564;2023-08-31T01:25:45;13.20;99.90
20750;DHT22;10535;50.664;4.564;2023-08-31T01:28:13;13.20;99.90
20750;DHT22;10535;50.664;4.564;2023-08-31T01:30:39;13.10;99.90
20750;DHT22;10535;50.664;4.564;2023-08-31T01:33:05;13.10;99.90
20750;DHT22;10535;50.664;4.564;2023-08-31T01:35:38;13.00;99.90
20750;DHT22;10535;50.664;4.564;2023-08-31T01:38:07;13.00;99.90
20750;DHT22;10535;50.664;4.564;2023-08-31T01:40:54;13.10;99.90
20750;DHT22;10535;50.664;4.564;2023-08-31T01:43:21;13.00;99.90
20750;DHT22;10535;50.664;4.564;2023-08-31T01:45:48;13.00;99.90
20750;DHT22;10535;50.664;4.564;2023-08-31T01:48:14;12.90;99.90
20750;DHT22;10535;50.664;4.564;2023-08-31T01:50:40;12.90;99.90
20750;DHT22;10535;50.664;4.564;2023-08-31T01:53:06;12.90;99.90
20750;DHT22;10535;50.664;4.564;2023-08-31T01:55:32;12.80;99.90
20750;DHT22;10535;50.664;4.564;2023-08-31T01:57:58;12.70;99.90
20750;DHT22;10535;50.664;4.564;2023-08-31T02:00:25;12.70;99.90
20750;DHT22;10535;50.664;4.564;2023-08-31T02:02:51;12.80;99.90
20750;DHT22;10535;50.664;4.564;2023-08-31T02:05:17;12.80;99.90
20750;DHT22;10535;50.664;4.564;2023-08-31T02:07:43;12.90;99.90
20750;DHT22;10535;50.664;4.564;2023-08-31T02:10:09;12.90;99.90
20750;DHT22;10535;50.664;4.564;2023-08-31T02:12:35;12.90;99.90
20750;DHT22;10535;50.664;4.564;2023-08-31T02:15:04;12.90;99.90
20750;DHT22;10535;50.664;4.564;2023-08-31T02:17:31;12.90;99.90
20750;DHT22;10535;50.664;4.564;2023-08-31T02:19:56;13.00;99.90
20750;DHT22;10535;50.664;4.564;2023-08-31T02:22:23;13.00;99.90
20750;DHT22;10535;50.664;4.564;2023-08-31T02:24:50;13.00;99.90
20750;DHT22;10535;50.664;4.564;2023-08-31T02:27:15;13.00;99.90
20750;DHT22;10535;50.664;4.564;2023-08-31T02:29:42;13.10;99.90
20750;DHT22;10535;50.664;4.564;2023-08-31T02:32:07;13.10;99.90
20750;DHT22;10535;50.664;4.564;2023-08-31T02:34:33;13.10;99.90
20750;DHT22;10535;50.664;4.564;2023-08-31T02:36:59;13.20;99.90
20750;DHT22;10535;50.664;4.564;2023-08-31T02:39:24;13.20;99.90
20750;DHT22;10535;50.664;4.564;2023-08-31T02:41:50;13.30;99.90
20750;DHT22;10535;50.664;4.564;2023-08-31T02:44:16;13.30;99.90
20750;DHT22;10535;50.664;4.564;2023-08-31T02:46:41;13.30;99.90
20750;DHT22;10535;50.664;4.564;2023-08-31T02:49:07;13.20;99.90
20750;DHT22;10535;50.664;4.564;2023-08-31T02:51:32;13.40;99.90
20750;DHT22;10535;50.664;4.564;2023-08-31T02:53:58;13.50;99.90
20750;DHT22;10535;50.664;4.564;2023-08-31T02:56:24;13.50;99.90
20750;DHT22;10535;50.664;4.564;2023-08-31T02:58:49;13.40;99.90
20750;DHT22;10535;50.664;4.564;2023-08-31T03:01:15;13.40;99.90
20750;DHT22;10535;50.664;4.564;2023-08-31T03:03:42;13.30;99.90
20750;DHT22;10535;50.664;4.564;2023-08-31T03:06:09;13.50;99.90
20750;DHT22;10535;50.664;4.564;2023-08-31T03:08:35;13.50;99.90
20750;DHT22;10535;50.664;4.564;2023-08-31T03:11:03;13.70;99.90
20750;DHT22;10535;50.664;4.564;2023-08-31T03:13:29;13.50;99.90
20750;DHT22;10535;50.664;4.564;2023-08-31T03:15:54;13.60;99.90
20750;DHT22;10535;50.664;4.564;2023-08-31T03:18:22;13.60;99.90
20750;DHT22;10535;50.664;4.564;2023-08-31T03:20:48;13.50;99.90
20750;DHT22;10535;50.664;4.564;2023-08-31T03:23:13;13.50;99.90
20750;DHT22;10535;50.664;4.564;2023-08-31T03:25:39;13.40;99.90
20750;DHT22;10535;50.664;4.564;2023-08-31T03:28:05;13.40;99.90
20750;DHT22;10535;50.664;4.564;2023-08-31T03:30:31;13.40;99.90
20750;DHT22;10535;50.664;4.564;2023-08-31T03:32:56;13.40;99.90
20750;DHT22;10535;50.664;4.564;2023-08-31T03:35:22;13.40;99.90
20750;DHT22;10535;50.664;4.564;2023-08-31T03:37:54;13.40;99.90
20750;DHT22;10535;50.664;4.564;2023-08-31T03:40:20;13.30;99.90
20750;DHT22;10535;50.664;4.564;2023-08-31T03:42:46;13.30;99.90
20750;DHT22;10535;50.664;4.564;2023-08-31T03:45:12;13.20;99.90
20750;DHT22;10535;50.664;4.564;2023-08-31T03:47:38;13.10;99.90
20750;DHT22;10535;50.664;4.564;2023-08-31T03:50:04;13.10;99.90
20750;DHT22;10535;50.664;4.564;2023-08-31T03:52:30;13.10;99.90
20750;DHT22;10535;50.664;4.564;2023-08-31T03:54:56;13.00;99.90
20750;DHT22;10535;50.664;4.564;2023-08-31T03:57:22;13.00;99.90
20750;DHT22;10535;50.664;4.564;2023-08-31T03:59:47;13.00;99.90
20750;DHT22;10535;50.664;4.564;2023-08-31T04:02:13;12.90;99.90
20750;DHT22;10535;50.664;4.564;2023-08-31T04:04:39;12.80;99.90
20750;DHT22;10535;50.664;4.564;2023-08-31T04:07:05;12.80;99.90
20750;DHT22;10535;50.664;4.564;2023-08-31T04:09:31;12.80;99.90
20750;DHT22;10535;50.664;4.564;2023-08-31T04:11:57;12.80;99.90
20750;DHT22;10535;50.664;4.564;2023-08-31T04:14:23;12.80;99.90
20750;DHT22;10535;50.664;4.564;2023-08-31T04:16:49;12.70;99.90
20750;DHT22;10535;50.664;4.564;2023-08-31T04:19:16;12.70;99.90
20750;DHT22;10535;50.664;4.564;2023-08-31T04:21:42;12.60;99.90
20750;DHT22;10535;50.664;4.564;2023-08-31T04:24:08;12.70;99.90
20750;DHT22;10535;50.664;4.564;2023-08-31T04:26:34;12.80;99.90
20750;DHT22;10535;50.664;4.564;2023-08-31T04:28:59;12.80;99.90
20750;DHT22;10535;50.664;4.564;2023-08-31T04:31:25;12.80;99.90
20750;DHT22;10535;50.664;4.564;2023-08-31T04:33:51;12.80;99.90
20750;DHT22;10535;50.664;4.564;2023-08-31T04:36:20;12.80;99.90
20750;DHT22;10535;50.664;4.564;2023-08-31T04:38:46;12.90;99.90
20750;DHT22;10535;50.664;4.564;2023-08-31T04:41:12;13.10;99.90
20750;DHT22;10535;50.664;4.564;2023-08-31T04:43:38;13.00;99.90
20750;DHT22;10535;50.664;4.564;2023-08-31T04:46:04;13.00;99.90
20750;DHT22;10535;50.664;4.564;2023-08-31T04:48:30;12.90;99.90
20750;DHT22;10535;50.664;4.564;2023-08-31T04:50:59;12.90;99.90
20750;DHT22;10535;50.664;4.564;2023-08-31T04:53:25;12.70;99.90
20750;DHT22;10535;50.664;4.564;2023-08-31T04:55:50;12.70;99.90
20750;DHT22;10535;50.664;4.564;2023-08-31T04:58:16;12.60;99.90
20750;DHT22;10535;50.664;4.564;2023-08-31T05:00:42;12.60;99.90
20750;DHT22;10535;50.664;4.564;2023-08-31T05:03:10;12.60;99.90
20750;DHT22;10535;50.664;4.564;2023-08-31T05:05:35;12.60;99.90
20750;DHT22;10535;50.664;4.564;2023-08-31T05:08:01;12.70;99.90
20750;DHT22;10535;50.664;4.564;2023-08-31T05:10:28;12.60;99.90
20750;DHT22;10535;50.664;4.564;2023-08-31T05:12:53;12.50;99.90
20750;DHT22;10535;50.664;4.564;2023-08-31T05:15:19;12.70;99.90
20750;DHT22;10535;50.664;4.564;2023-08-31T05:17:45;12.80;99.90
20750;DHT22;10535;50.664;4.564;2023-08-31T05:20:13;12.80;99.90
20750;DHT22;10535;50.664;4.564;2023-08-31T05:22:39;12.80;99.90
20750;DHT22;10535;50.664;4.564;2023-08-31T05:25:05;12.90;99.90
20750;DHT22;10535;50.664;4.564;2023-08-31T05:27:31;12.90;99.90
20750;DHT22;10535;50.664;4.564;2023-08-31T05:29:56;13.00;99.90
20750;DHT22;10535;50.664;4.564;2023-08-31T05:32:22;13.10;99.90
20750;DHT22;10535;50.664;4.564;2023-08-31T05:34:48;13.10;99.90
20750;DHT22;10535;50.664;4.564;2023-08-31T05:37:13;13.10;99.90
20750;DHT22;10535;50.664;4.564;2023-08-31T05:39:40;13.20;99.90
20750;DHT22;10535;50.664;4.564;2023-08-31T05:42:05;13.10;99.90
20750;DHT22;10535;50.664;4.564;2023-08-31T05:44:31;13.00;99.90
20750;DHT22;10535;50.664;4.564;2023-08-31T05:46:57;13.00;99.90
20750;DHT22;10535;50.664;4.564;2023-08-31T05:49:23;13.00;99.90
20750;DHT22;10535;50.664;4.564;2023-08-31T05:51:49;12.90;99.90
20750;DHT22;10535;50.664;4.564;2023-08-31T05:54:16;13.00;99.90
20750;DHT22;10535;50.664;4.564;2023-08-31T05:56:41;13.10;99.90
20750;DHT22;10535;50.664;4.564;2023-08-31T05:59:07;13.30;99.90
20750;DHT22;10535;50.664;4.564;2023-08-31T06:01:35;13.40;99.90
20750;DHT22;10535;50.664;4.564;2023-08-31T06:04:01;13.50;99.90
20750;DHT22;10535;50.664;4.564;2023-08-31T06:06:28;13.50;99.90
20750;DHT22;10535;50.664;4.564;2023-08-31T06:08:54;13.60;99.90
20750;DHT22;10535;50.664;4.564;2023-08-31T06:11:20;13.80;99.90
20750;DHT22;10535;50.664;4.564;2023-08-31T06:13:46;13.80;99.90
20750;DHT22;10535;50.664;4.564;2023-08-31T06:16:12;13.70;99.90
20750;DHT22;10535;50.664;4.564;2023-08-31T06:18:38;13.90;99.90
20750;DHT22;10535;50.664;4.564;2023-08-31T06:21:03;14.00;99.90
20750;DHT22;10535;50.664;4.564;2023-08-31T06:23:29;14.00;99.90
20750;DHT22;10535;50.664;4.564;2023-08-31T06:25:54;14.20;99.90
20750;DHT22;10535;50.664;4.564;2023-08-31T06:28:20;14.30;99.90
20750;DHT22;10535;50.664;4.564;2023-08-31T06:30:46;14.30;99.90
20750;DHT22;10535;50.664;4.564;2023-08-31T06:33:14;14.20;99.90
20750;DHT22;10535;50.664;4.564;2023-08-31T06:35:40;14.30;99.90
20750;DHT22;10535;50.664;4.564;2023-08-31T06:38:06;14.40;99.90
20750;DHT22;10535;50.664;4.564;2023-08-31T06:40:32;14.50;99.90
20750;DHT22;10535;50.664;4.564;2023-08-31T06:42:58;14.30;99.90
20750;DHT22;10535;50.664;4.564;2023-08-31T06:45:24;14.50;99.90
20750;DHT22;10535;50.664;4.564;2023-08-31T06:47:49;14.50;99.90
20750;DHT22;10535;50.664;4.564;2023-08-31T06:50:15;14.60;99.90
20750;DHT22;10535;50.664;4.564;2023-08-31T06:52:41;14.80;99.90
20750;DHT22;10535;50.664;4.564;2023-08-31T06:55:07;14.70;99.90
20750;DHT22;10535;50.664;4.564;2023-08-31T06:57:33;14.80;99.90
20750;DHT22;10535;50.664;4.564;2023-08-31T07:00:00;15.00;99.90
20750;DHT22;10535;50.664;4.564;2023-08-31T07:02:28;15.30;99.90
20750;DHT22;10535;50.664;4.564;2023-08-31T07:04:54;15.50;99.90
20750;DHT22;10535;50.664;4.564;2023-08-31T07:07:20;15.60;99.90
20750;DHT22;10535;50.664;4.564;2023-08-31T07:09:47;15.70;99.90
20750;DHT22;10535;50.664;4.564;2023-08-31T07:12:16;15.60;99.90
20750;DHT22;10535;50.664;4.564;2023-08-31T07:14:41;15.60;99.90
20750;DHT22;10535;50.664;4.564;2023-08-31T07:17:07;15.60;99.90
20750;DHT22;10535;50.664;4.564;2023-08-31T07:19:36;15.60;99.90
20750;DHT22;10535;50.664;4.564;2023-08-31T07:22:03;15.60;99.90
20750;DHT22;10535;50.664;4.564;2023-08-31T07:24:29;15.60;99.90
20750;DHT22;10535;50.664;4.564;2023-08-31T07:26:55;15.60;99.90
20750;DHT22;10535;50.664;4.564;2023-08-31T07:29:21;15.70;99.90
20750;DHT22;10535;50.664;4.564;2023-08-31T07:31:46;15.90;99.90
20750;DHT22;10535;50.664;4.564;2023-08-31T07:34:12;16.00;99.90
20750;DHT22;10535;50.664;4.564;2023-08-31T07:36:38;16.00;99.90
20750;DHT22;10535;50.664;4.564;2023-08-31T07:39:05;16.20;99.90
20750;DHT22;10535;50.664;4.564;2023-08-31T07:41:30;16.50;99.90
20750;DHT22;10535;50.664;4.564;2023-08-31T07:43:56;16.70;99.90
20750;DHT22;10535;50.664;4.564;2023-08-31T07:46:22;16.70;99.90
20750;DHT22;10535;50.664;4.564;2023-08-31T07:48:47;16.80;99.90
20750;DHT22;10535;50.664;4.564;2023-08-31T07:51:15;16.90;99.90
20750;DHT22;10535;50.664;4.564;2023-08-31T07:53:41;17.00;99.90
20750;DHT22;10535;50.664;4.564;2023-08-31T07:56:06;17.10;99.90
20750;DHT22;10535;50.664;4.564;2023-08-31T07:58:32;17.00;99.90
20750;DHT22;10535;50.664;4.564;2023-08-31T08:00:58;17.10;99.90
20750;DHT22;10535;50.664;4.564;2023-08-31T08:03:24;17.30;99.90
20750;DHT22;10535;50.664;4.564;2023-08-31T08:05:49;17.40;99.90
20750;DHT22;10535;50.664;4.564;2023-08-31T08:08:15;17.70;99.90
20750;DHT22;10535;50.664;4.564;2023-08-31T08:10:41;17.90;99.90
20750;DHT22;10535;50.664;4.564;2023-08-31T08:13:08;18.00;99.90
20750;DHT22;10535;50.664;4.564;2023-08-31T08:15:34;18.20;99.90
20750;DHT22;10535;50.664;4.564;2023-08-31T08:17:59;18.30;99.90
20750;DHT22;10535;50.664;4.564;2023-08-31T08:20:25;18.20;99.90
20750;DHT22;10535;50.664;4.564;2023-08-31T08:22:51;18.20;99.90
20750;DHT22;10535;50.664;4.564;2023-08-31T08:25:20;18.40;99.90
20750;DHT22;10535;50.664;4.564;2023-08-31T08:27:46;18.50;99.90
20750;DHT22;10535;50.664;4.564;2023-08-31T08:30:12;18.30;99.90
20750;DHT22;10535;50.664;4.564;2023-08-31T08:32:38;18.30;99.90
20750;DHT22;10535;50.664;4.564;2023-08-31T08:35:04;18.20;99.90
20750;DHT22;10535;50.664;4.564;2023-08-31T08:37:31;17.90;99.90
20750;DHT22;10535;50.664;4.564;2023-08-31T08:39:58;17.90;99.90
20750;DHT22;10535;50.664;4.564;2023-08-31T08:42:25;17.90;99.90
20750;DHT22;10535;50.664;4.564;2023-08-31T08:44:51;17.80;99.90
20750;DHT22;10535;50.664;4.564;2023-08-31T08:47:17;17.80;99.90
20750;DHT22;10535;50.664;4.564;2023-08-31T08:49:43;17.70;99.90
20750;DHT22;10535;50.664;4.564;2023-08-31T08:52:12;17.80;99.90
20750;DHT22;10535;50.664;4.564;2023-08-31T08:54:38;17.90;99.90
20750;DHT22;10535;50.664;4.564;2023-08-31T08:57:04;18.00;99.90
20750;DHT22;10535;50.664;4.564;2023-08-31T08:59:31;18.20;99.90
20750;DHT22;10535;50.664;4.564;2023-08-31T09:01:57;18.20;99.90
20750;DHT22;10535;50.664;4.564;2023-08-31T09:04:22;18.50;99.90
20750;DHT22;10535;50.664;4.564;2023-08-31T09:06:50;18.60;99.90
20750;DHT22;10535;50.664;4.564;2023-08-31T09:09:15;18.90;99.90
20750;DHT22;10535;50.664;4.564;2023-08-31T09:11:42;19.10;99.90
20750;DHT22;10535;50.664;4.564;2023-08-31T09:14:18;19.30;99.90
20750;DHT22;10535;50.664;4.564;2023-08-31T09:16:51;19.30;99.90
20750;DHT22;10535;50.664;4.564;2023-08-31T09:19:24;19.60;99.90
20750;DHT22;10535;50.664;4.564;2023-08-31T09:21:55;19.40;99.90
20750;DHT22;10535;50.664;4.564;2023-08-31T09:24:20;19.50;99.90
20750;DHT22;10535;50.664;4.564;2023-08-31T09:26:51;19.40;99.90
20750;DHT22;10535;50.664;4.564;2023-08-31T09:29:17;19.70;99.90
20750;DHT22;10535;50.664;4.564;2023-08-31T09:31:44;19.80;99.90
20750;DHT22;10535;50.664;4.564;2023-08-31T09:34:11;19.70;99.90
20750;DHT22;10535;50.664;4.564;2023-08-31T09:36:37;19.80;99.90
20750;DHT22;10535;50.664;4.564;2023-08-31T09:39:04;19.80;99.90
20750;DHT22;10535;50.664;4.564;2023-08-31T09:41:30;20.10;99.90
20750;DHT22;10535;50.664;4.564;2023-08-31T09:43:56;20.20;99.90
20750;DHT22;10535;50.664;4.564;2023-08-31T09:46:39;20.20;99.90
20750;DHT22;10535;50.664;4.564;2023-08-31T09:49:05;20.60;99.90
20750;DHT22;10535;50.664;4.564;2023-08-31T09:51:33;20.60;99.90
20750;DHT22;10535;50.664;4.564;2023-08-31T09:54:03;20.80;99.90
20750;DHT22;10535;50.664;4.564;2023-08-31T09:56:32;20.50;99.90
20750;DHT22;10535;50.664;4.564;2023-08-31T09:58:58;20.20;99.90
20750;DHT22;10535;50.664;4.564;2023-08-31T10:01:24;20.30;99.90
20750;DHT22;10535;50.664;4.564;2023-08-31T10:03:50;20.30;99.90
20750;DHT22;10535;50.664;4.564;2023-08-31T10:06:16;20.50;99.90
20750;DHT22;10535;50.664;4.564;2023-08-31T10:08:42;20.70;99.90
20750;DHT22;10535;50.664;4.564;2023-08-31T10:11:09;20.90;99.90
20750;DHT22;10535;50.664;4.564;2023-08-31T10:13:38;20.80;99.90
20750;DHT22;10535;50.664;4.564;2023-08-31T10:16:06;20.90;99.90
20750;DHT22;10535;50.664;4.564;2023-08-31T10:18:34;20.80;99.90
20750;DHT22;10535;50.664;4.564;2023-08-31T10:21:02;21.00;99.90
20750;DHT22;10535;50.664;4.564;2023-08-31T10:23:28;21.10;99.90
20750;DHT22;10535;50.664;4.564;2023-08-31T10:28:21;20.90;99.90
20750;DHT22;10535;50.664;4.564;2023-08-31T10:31:04;21.00;99.90
20750;DHT22;10535;50.664;4.564;2023-08-31T10:33:34;21.20;99.90
20750;DHT22;10535;50.664;4.564;2023-08-31T10:36:00;21.40;99.90
20750;DHT22;10535;50.664;4.564;2023-08-31T10:46:32;21.80;99.90
20750;DHT22;10535;50.664;4.564;2023-08-31T10:51:41;21.00;99.90
20750;DHT22;10535;50.664;4.564;2023-08-31T10:54:32;21.00;99.90
20750;DHT22;10535;50.664;4.564;2023-08-31T10:57:04;21.00;99.90
20750;DHT22;10535;50.664;4.564;2023-08-31T11:02:44;20.60;99.90
20750;DHT22;10535;50.664;4.564;2023-08-31T11:07:35;21.40;99.90
20750;DHT22;10535;50.664;4.564;2023-08-31T11:10:08;21.30;99.90
20750;DHT22;10535;50.664;4.564;2023-08-31T11:12:38;21.00;99.90
20750;DHT22;10535;50.664;4.564;2023-08-31T11:15:04;20.80;99.90
20750;DHT22;10535;50.664;4.564;2023-08-31T11:17:31;20.90;99.90
20750;DHT22;10535;50.664;4.564;2023-08-31T11:20:00;20.90;99.90
20750;DHT22;10535;50.664;4.564;2023-08-31T11:22:26;20.60;99.90
20750;DHT22;10535;50.664;4.564;2023-08-31T11:24:52;20.40;99.90
20750;DHT22;10535;50.664;4.564;2023-08-31T11:27:22;20.40;99.90
20750;DHT22;10535;50.664;4.564;2023-08-31T11:29:48;20.40;99.90
20750;DHT22;10535;50.664;4.564;2023-08-31T11:32:13;20.70;99.90
20750;DHT22;10535;50.664;4.564;2023-08-31T11:34:43;21.30;99.90
20750;DHT22;10535;50.664;4.564;2023-08-31T11:37:13;21.70;99.90
20750;DHT22;10535;50.664;4.564;2023-08-31T11:39:50;22.20;99.90
20750;DHT22;10535;50.664;4.564;2023-08-31T11:42:16;22.30;99.90
20750;DHT22;10535;50.664;4.564;2023-08-31T11:44:45;22.30;99.90
20750;DHT22;10535;50.664;4.564;2023-08-31T11:47:12;22.30;99.90
20750;DHT22;10535;50.664;4.564;2023-08-31T11:49:39;22.20;99.90
20750;DHT22;10535;50.664;4.564;2023-08-31T11:52:05;22.10;99.90
20750;DHT22;10535;50.664;4.564;2023-08-31T11:54:31;22.10;99.90
20750;DHT22;10535;50.664;4.564;2023-08-31T11:56:57;21.90;99.90
20750;DHT22;10535;50.664;4.564;2023-08-31T11:59:22;22.00;99.90
20750;DHT22;10535;50.664;4.564;2023-08-31T12:01:50;22.00;99.90
20750;DHT22;10535;50.664;4.564;2023-08-31T12:04:19;22.10;99.90
20750;DHT22;10535;50.664;4.564;2023-08-31T12:06:50;22.30;99.90
20750;DHT22;10535;50.664;4.564;2023-08-31T12:09:16;22.30;99.90
20750;DHT22;10535;50.664;4.564;2023-08-31T12:11:41;22.10;99.90
20750;DHT22;10535;50.664;4.564;2023-08-31T12:14:24;22.00;99.90
20750;DHT22;10535;50.664;4.564;2023-08-31T12:16:52;21.90;99.90
20750;DHT22;10535;50.664;4.564;2023-08-31T12:19:18;22.20;99.90
20750;DHT22;10535;50.664;4.564;2023-08-31T12:21:46;22.30;99.90
20750;DHT22;10535;50.664;4.564;2023-08-31T12:24:12;22.00;99.90
20750;DHT22;10535;50.664;4.564;2023-08-31T12:26:39;21.90;99.90
20750;DHT22;10535;50.664;4.564;2023-08-31T12:29:05;22.10;99.90
20750;DHT22;10535;50.664;4.564;2023-08-31T12:31:31;22.50;99.90
20750;DHT22;10535;50.664;4.564;2023-08-31T12:33:58;22.30;99.90
20750;DHT22;10535;50.664;4.564;2023-08-31T12:36:25;22.10;99.90
20750;DHT22;10535;50.664;4.564;2023-08-31T12:38:50;22.10;99.90
20750;DHT22;10535;50.664;4.564;2023-08-31T12:41:17;22.30;99.90
20750;DHT22;10535;50.664;4.564;2023-08-31T12:43:43;22.10;99.90
20750;DHT22;10535;50.664;4.564;2023-08-31T12:46:08;22.10;99.90
20750;DHT22;10535;50.664;4.564;2023-08-31T12:48:35;22.00;99.90
20750;DHT22;10535;50.664;4.564;2023-08-31T12:51:01;21.90;99.90
20750;DHT22;10535;50.664;4.564;2023-08-31T12:53:26;21.90;99.90
20750;DHT22;10535;50.664;4.564;2023-08-31T12:55:53;21.80;99.90
20750;DHT22;10535;50.664;4.564;2023-08-31T12:58:19;22.00;99.90
20750;DHT22;10535;50.664;4.564;2023-08-31T13:00:47;21.90;99.90
20750;DHT22;10535;50.664;4.564;2023-08-31T13:03:14;22.10;99.90
20750;DHT22;10535;50.664;4.564;2023-08-31T13:05:40;21.80;99.90
20750;DHT22;10535;50.664;4.564;2023-08-31T13:08:07;21.70;99.90
20750;DHT22;10535;50.664;4.564;2023-08-31T13:10:33;21.60;99.90
20750;DHT22;10535;50.664;4.564;2023-08-31T13:12:59;21.60;99.90
20750;DHT22;10535;50.664;4.564;2023-08-31T13:15:25;21.60;99.90
20750;DHT22;10535;50.664;4.564;2023-08-31T13:17:50;21.80;99.90
20750;DHT22;10535;50.664;4.564;2023-08-31T13:20:16;22.20;99.90
20750;DHT22;10535;50.664;4.564;2023-08-31T13:22:42;22.10;99.90
20750;DHT22;10535;50.664;4.564;2023-08-31T13:25:08;22.10;99.90
20750;DHT22;10535;50.664;4.564;2023-08-31T13:27:34;22.50;99.90
20750;DHT22;10535;50.664;4.564;2023-08-31T13:30:00;22.70;99.90
20750;DHT22;10535;50.664;4.564;2023-08-31T13:32:25;22.80;99.90
20750;DHT22;10535;50.664;4.564;2023-08-31T13:34:51;23.10;99.90
20750;DHT22;10535;50.664;4.564;2023-08-31T13:37:19;23.10;99.90
20750;DHT22;10535;50.664;4.564;2023-08-31T13:39:44;23.10;99.90
20750;DHT22;10535;50.664;4.564;2023-08-31T13:42:10;23.00;99.90
20750;DHT22;10535;50.664;4.564;2023-08-31T13:44:35;22.50;99.90
20750;DHT22;10535;50.664;4.564;2023-08-31T13:47:01;22.40;99.90
20750;DHT22;10535;50.664;4.564;2023-08-31T13:49:29;22.30;99.90
20750;DHT22;10535;50.664;4.564;2023-08-31T13:51:56;22.50;99.90
20750;DHT22;10535;50.664;4.564;2023-08-31T13:54:21;22.40;99.90
20750;DHT22;10535;50.664;4.564;2023-08-31T13:56:47;22.40;99.90
20750;DHT22;10535;50.664;4.564;2023-08-31T13:59:15;22.50;99.90
20750;DHT22;10535;50.664;4.564;2023-08-31T14:01:41;22.70;99.90
20750;DHT22;10535;50.664;4.564;2023-08-31T14:04:06;22.40;99.90
20750;DHT22;10535;50.664;4.564;2023-08-31T14:06:32;22.30;99.90
20750;DHT22;10535;50.664;4.564;2023-08-31T14:08:58;22.50;99.90
20750;DHT22;10535;50.664;4.564;2023-08-31T14:11:24;22.30;99.90
20750;DHT22;10535;50.664;4.564;2023-08-31T14:13:50;22.00;99.90
20750;DHT22;10535;50.664;4.564;2023-08-31T14:16:18;22.00;99.90
20750;DHT22;10535;50.664;4.564;2023-08-31T14:18:43;21.80;99.90
20750;DHT22;10535;50.664;4.564;2023-08-31T14:21:15;21.80;99.90
20750;DHT22;10535;50.664;4.564;2023-08-31T14:23:40;21.70;99.90
20750;DHT22;10535;50.664;4.564;2023-08-31T14:26:06;21.30;99.90
20750;DHT22;10535;50.664;4.564;2023-08-31T14:28:34;21.40;99.90
20750;DHT22;10535;50.664;4.564;2023-08-31T14:31:04;21.40;99.90
20750;DHT22;10535;50.664;4.564;2023-08-31T14:33:30;21.40;99.90
20750;DHT22;10535;50.664;4.564;2023-08-31T14:35:56;21.50;99.90
20750;DHT22;10535;50.664;4.564;2023-08-31T14:38:21;21.50;99.90
20750;DHT22;10535;50.664;4.564;2023-08-31T14:40:47;21.30;99.90
20750;DHT22;10535;50.664;4.564;2023-08-31T14:43:13;21.00;99.90
20750;DHT22;10535;50.664;4.564;2023-08-31T14:45:39;20.90;99.90
20750;DHT22;10535;50.664;4.564;2023-08-31T14:48:04;20.80;99.90
20750;DHT22;10535;50.664;4.564;2023-08-31T14:50:30;21.00;99.90
20750;DHT22;10535;50.664;4.564;2023-08-31T14:52:56;21.10;99.90
20750;DHT22;10535;50.664;4.564;2023-08-31T14:55:21;21.00;99.90
20750;DHT22;10535;50.664;4.564;2023-08-31T14:57:47;21.10;99.90
20750;DHT22;10535;50.664;4.564;2023-08-31T15:00:13;21.00;99.90
20750;DHT22;10535;50.664;4.564;2023-08-31T15:02:40;21.10;99.90
20750;DHT22;10535;50.664;4.564;2023-08-31T15:05:05;21.00;99.90
20750;DHT22;10535;50.664;4.564;2023-08-31T15:07:31;20.90;99.90
20750;DHT22;10535;50.664;4.564;2023-08-31T15:09:57;20.90;99.90
20750;DHT22;10535;50.664;4.564;2023-08-31T15:12:22;21.10;99.90
20750;DHT22;10535;50.664;4.564;2023-08-31T15:14:48;21.20;99.90
20750;DHT22;10535;50.664;4.564;2023-08-31T15:17:13;21.20;99.90
20750;DHT22;10535;50.664;4.564;2023-08-31T15:19:39;21.10;99.90
20750;DHT22;10535;50.664;4.564;2023-08-31T15:22:05;21.10;99.90
20750;DHT22;10535;50.664;4.564;2023-08-31T15:24:30;20.90;99.90
20750;DHT22;10535;50.664;4.564;2023-08-31T15:26:58;21.20;99.90
20750;DHT22;10535;50.664;4.564;2023-08-31T15:29:24;20.90;99.90
20750;DHT22;10535;50.664;4.564;2023-08-31T15:31:50;21.00;99.90
20750;DHT22;10535;50.664;4.564;2023-08-31T15:34:16;20.70;99.90
20750;DHT22;10535;50.664;4.564;2023-08-31T15:36:41;20.60;99.90
20750;DHT22;10535;50.664;4.564;2023-08-31T15:39:07;20.50;99.90
20750;DHT22;10535;50.664;4.564;2023-08-31T15:41:33;20.50;99.90
20750;DHT22;10535;50.664;4.564;2023-08-31T15:44:02;20.50;99.90
20750;DHT22;10535;50.664;4.564;2023-08-31T15:46:29;20.60;99.90
20750;DHT22;10535;50.664;4.564;2023-08-31T15:48:54;20.70;99.90
20750;DHT22;10535;50.664;4.564;2023-08-31T15:51:20;20.70;99.90
20750;DHT22;10535;50.664;4.564;2023-08-31T15:53:46;20.70;99.90
20750;DHT22;10535;50.664;4.564;2023-08-31T15:56:11;20.60;99.90